Time;durP1;ratioP1;P1;durP2;ratioP2;P2;SDS_P1;SDS_P2;PMS_P1;PMS_P2;Temp;Humidity;BMP_temperature;BMP_pressure;BME280_temperature;BME280_humidity;BME280_pressure;Samples;Min_cycle;Max_cycle;Signal;HPM_P1;HPM_P2
2021/11/09 00:01:36;;;;;;;28.30;18.83;;;282.10;2278.40;;;;;;5094008;28;20026;-81
2021/11/09 00:04:06;;;;;;;36.45;24.75;;;282.10;2278.40;;;;;;5075227;28;20465;-82
2021/11/09 00:06:38;;;;;;;27.33;18.27;;;282.10;2278.40;;;;;;5075434;28;20119;-82
2021/11/09 00:09:22;;;;;;;28.63;20.40;;;282.10;2278.40;;;;;;5075283;28;20120;-81
2021/11/09 00:11:48;;;;;;;32.83;21.83;;;282.00;2278.40;;;;;;5075434;28;20388;-81
2021/11/09 00:14:14;;;;;;;31.00;21.83;;;256.80;2252.80;;;;;;5075512;28;20039;-82
2021/11/09 00:16:39;;;;;;;32.20;20.95;;;281.80;2278.40;;;;;;5075279;28;20035;-81
2021/11/09 00:19:05;;;;;;;28.25;19.92;;;281.70;2278.40;;;;;;5075420;28;20113;-80
2021/11/09 00:21:31;;;;;;;27.58;19.10;;;281.60;2278.40;;;;;;5075383;28;20167;-81
2021/11/09 00:24:01;;;;;;;26.58;18.73;;;281.80;2278.40;;;;;;5075093;28;20031;-80
2021/11/09 00:26:28;;;;;;;30.42;20.67;;;281.60;2278.40;;;;;;5095285;28;20021;-83
2021/11/09 00:28:55;;;;;;;33.45;22.95;;;281.60;2278.40;;;;;;5091748;28;20034;-81
2021/11/09 00:31:22;;;;;;;40.85;25.35;;;256.80;2252.80;;;;;;5098139;28;20008;-80
2021/11/09 00:33:47;;;;;;;30.05;23.00;;;281.70;2278.40;;;;;;5118275;28;20004;-80
2021/11/09 00:36:13;;;;;;;41.83;30.05;;;281.70;2278.40;;;;;;5119310;28;20031;-80
2021/11/09 00:38:40;;;;;;;42.67;32.00;;;281.70;2278.40;;;;;;5101451;28;20067;-80
2021/11/09 00:41:06;;;;;;;35.30;25.85;;;281.80;2278.40;;;;;;5099623;28;20032;-81
2021/11/09 00:43:32;;;;;;;31.75;25.20;;;281.70;2278.40;;;;;;5099802;28;20024;-79
2021/11/09 00:45:58;;;;;;;34.03;24.25;;;281.90;2278.40;;;;;;5098011;28;20032;-79
2021/11/09 00:48:24;;;;;;;36.95;25.17;;;281.90;2278.40;;;;;;5114950;28;20104;-81
2021/11/09 00:50:50;;;;;;;39.58;20.35;;;281.90;2278.40;;;;;;5096667;28;20024;-80
2021/11/09 00:53:17;;;;;;;28.50;20.23;;;282.00;2278.40;;;;;;5096827;28;20024;-80
2021/11/09 00:55:46;;;;;;;33.90;23.17;;;281.70;2278.40;;;;;;5117094;28;20034;-79
2021/11/09 00:58:14;;;;;;;34.65;23.67;;;281.80;2278.40;;;;;;5098570;28;20031;-80
2021/11/09 01:00:41;;;;;;;30.40;23.00;;;281.80;2278.40;;;;;;5116929;28;20028;-79
2021/11/09 01:03:09;;;;;;;29.67;22.70;;;281.90;2278.40;;;;;;5112274;28;20024;-81
2021/11/09 01:05:35;;;;;;;36.55;26.33;;;282.00;2278.40;;;;;;5078580;28;20110;-81
2021/11/09 01:08:05;;;;;;;33.92;25.60;;;281.70;2278.40;;;;;;5096342;28;20024;-82
2021/11/09 01:10:35;;;;;;;36.03;24.42;;;281.90;2278.40;;;;;;5078379;28;20042;-81
2021/11/09 01:13:02;;;;;;;26.33;19.65;;;281.90;2278.40;;;;;;5096108;28;20066;-81
2021/11/09 01:15:29;;;;;;;36.63;26.45;;;281.80;2278.40;;;;;;5096447;28;20042;-81
2021/11/09 01:17:56;;;;;;;34.70;25.23;;;281.90;2278.40;;;;;;5096422;28;20077;-81
2021/11/09 01:20:24;;;;;;;29.75;21.98;;;281.90;2278.40;;;;;;5077882;28;20100;-81
2021/11/09 01:22:53;;;;;;;33.78;24.58;;;281.90;2278.40;;;;;;5078364;28;20477;-81
2021/11/09 01:25:20;;;;;;;38.47;26.00;;;281.90;2278.40;;;;;;5103544;28;20412;-81
2021/11/09 01:27:46;;;;;;;33.15;23.55;;;281.80;2278.40;;;;;;5078048;28;20035;-81
2021/11/09 01:30:13;;;;;;;36.88;24.17;;;282.20;2278.40;;;;;;5078215;28;20032;-81
2021/11/09 01:32:39;;;;;;;30.13;21.92;;;281.70;2278.40;;;;;;5077533;28;20111;-80
2021/11/09 01:35:07;;;;;;;34.47;23.83;;;281.80;2278.40;;;;;;5078115;28;20047;-81
2021/11/09 01:37:34;;;;;;;34.88;24.27;;;281.80;2278.40;;;;;;5077921;28;20021;-81
2021/11/09 01:40:00;;;;;;;31.55;23.80;;;281.90;2278.40;;;;;;5077717;28;20063;-80
2021/11/09 01:42:27;;;;;;;31.30;21.50;;;281.70;2278.40;;;;;;5077987;28;20484;-81
2021/11/09 01:44:53;;;;;;;30.35;19.95;;;281.80;2278.40;;;;;;5078308;28;20024;-81
2021/11/09 01:47:19;;;;;;;31.20;21.05;;;281.90;2278.40;;;;;;5077610;28;20024;-81
2021/11/09 01:49:45;;;;;;;26.60;18.63;;;281.80;2278.40;;;;;;5077608;28;20085;-81
2021/11/09 01:52:11;;;;;;;28.02;19.73;;;281.80;2278.40;;;;;;5077815;28;20060;-80
2021/11/09 01:54:38;;;;;;;33.45;22.50;;;281.80;2278.40;;;;;;5077062;28;20028;-81
2021/11/09 01:57:04;;;;;;;28.55;20.17;;;281.80;2278.40;;;;;;5095381;28;20052;-80
2021/11/09 01:59:32;;;;;;;29.67;22.40;;;281.70;2278.40;;;;;;5095538;28;20032;-81
2021/11/09 02:01:58;;;;;;;31.98;21.20;;;281.60;2278.40;;;;;;5095128;28;20099;-81
2021/11/09 02:04:23;;;;;;;32.03;21.88;;;281.70;2278.40;;;;;;5077458;28;20116;-81
2021/11/09 02:06:50;;;;;;;31.13;19.95;;;281.70;2278.40;;;;;;5077245;28;20070;-81
2021/11/09 02:09:18;;;;;;;26.98;19.42;;;281.60;2278.40;;;;;;5091636;28;20042;-79
2021/11/09 02:11:47;;;;;;;27.90;22.00;;;281.60;2278.40;;;;;;5095028;28;20020;-79
2021/11/09 02:14:14;;;;;;;26.45;19.95;;;281.60;2278.40;;;;;;5095357;28;20031;-80
2021/11/09 02:16:40;;;;;;;25.35;17.45;;;281.60;2278.40;;;;;;5087688;28;20107;-81
2021/11/09 02:19:06;;;;;;;27.73;19.35;;;281.60;2278.40;;;;;;5095401;28;20025;-82
2021/11/09 02:21:33;;;;;;;27.85;19.23;;;281.60;2278.40;;;;;;5077169;28;20070;-81
2021/11/09 02:23:59;;;;;;;28.23;19.63;;;281.60;2278.40;;;;;;5076632;28;20028;-80
2021/11/09 02:26:26;;;;;;;24.33;18.02;;;281.60;2278.40;;;;;;5076996;28;20026;-81
2021/11/09 02:28:56;;;;;;;28.60;20.05;;;281.60;2278.40;;;;;;5076392;28;20064;-81
2021/11/09 02:31:22;;;;;;;25.63;17.83;;;281.70;2278.40;;;;;;5077117;28;20062;-81
2021/11/09 02:33:49;;;;;;;27.95;18.98;;;281.60;2278.40;;;;;;5077166;28;20511;-81
2021/11/09 02:36:17;;;;;;;24.13;18.58;;;281.60;2278.40;;;;;;5094788;28;20024;-81
2021/11/09 02:38:44;;;;;;;27.02;18.13;;;281.60;2278.40;;;;;;5076471;28;20051;-81
2021/11/09 02:41:10;;;;;;;21.33;16.05;;;281.60;2278.40;;;;;;5076603;28;20024;-81
2021/11/09 02:43:36;;;;;;;25.00;17.30;;;281.60;2278.40;;;;;;5076184;28;20164;-81
2021/11/09 02:48:58;;;;;;;24.55;17.52;;;256.90;2252.80;;;;;;5094306;28;20067;-81
2021/11/09 02:51:49;;;;;;;23.88;16.73;;;256.90;2252.80;;;;;;5076074;28;20031;-81
2021/11/09 02:54:17;;;;;;;28.20;17.70;;;256.80;2252.80;;;;;;5092968;28;20111;-81
2021/11/09 03:04:57;;;;;;;25.70;18.57;;;256.90;2252.80;;;;;;5094335;28;20031;-81
2021/11/09 03:07:30;;;;;;;22.30;17.27;;;256.90;2252.80;;;;;;5076428;28;20024;-81
2021/11/09 03:12:49;;;;;;;24.58;17.90;;;256.70;2252.80;;;;;;5069691;28;20032;-81
2021/11/09 03:15:22;;;;;;;31.13;18.98;;;256.70;2252.80;;;;;;5076053;28;20046;-80
2021/11/09 03:17:53;;;;;;;21.88;17.13;;;256.80;2252.80;;;;;;5075702;28;20031;-81
2021/11/09 03:20:34;;;;;;;28.73;19.25;;;256.80;2252.80;;;;;;5076057;28;20024;-81
2021/11/09 03:45:17;;;;;;;26.42;18.58;;;256.70;2252.80;;;;;;5094113;28;20138;-80
2021/11/09 03:47:47;;;;;;;25.70;18.02;;;256.70;2252.80;;;;;;5093642;28;20021;-80
2021/11/09 03:50:15;;;;;;;29.05;19.67;;;256.80;2252.80;;;;;;5075808;28;20035;-81
2021/11/09 03:52:48;;;;;;;26.05;19.52;;;256.70;2252.80;;;;;;5075393;28;20024;-81
2021/11/09 03:55:22;;;;;;;27.58;18.98;;;256.70;2252.80;;;;;;5075619;28;20072;-81
2021/11/09 03:58:07;;;;;;;28.70;20.08;;;256.70;2252.80;;;;;;5075521;28;20081;-82
2021/11/09 04:03:02;;;;;;;27.90;18.60;;;256.60;2252.80;;;;;;5094066;28;20189;-81
2021/11/09 04:05:38;;;;;;;28.63;18.08;;;256.60;2252.80;;;;;;5076065;28;20111;-81
2021/11/09 04:08:11;;;;;;;25.65;18.05;;;256.60;2252.80;;;;;;5079206;28;20024;-80
2021/11/09 04:13:23;;;;;;;25.85;18.70;;;256.60;2252.80;;;;;;5097591;28;20047;-80
2021/11/09 04:16:11;;;;;;;22.63;17.60;;;256.50;2252.80;;;;;;5079092;28;20094;-82
2021/11/09 04:18:50;;;;;;;29.65;19.38;;;256.50;2252.80;;;;;;5079343;28;20062;-82
2021/11/09 04:21:29;;;;;;;26.40;18.27;;;256.50;2252.80;;;;;;5079091;28;20031;-82
2021/11/09 04:29:26;;;;;;;24.73;17.50;;;256.50;2252.80;;;;;;5097021;28;20032;-79
2021/11/09 04:53:10;;;;;;;33.88;23.92;;;256.40;2252.80;;;;;;5076681;28;20027;-80
2021/11/09 05:09:09;;;;;;;33.72;23.30;;;256.60;2252.80;;;;;;5076354;28;20476;-80
2021/11/09 05:11:39;;;;;;;30.92;23.83;;;256.50;2252.80;;;;;;5074754;28;20082;-80
2021/11/09 05:14:10;;;;;;;28.33;22.67;;;256.60;2252.80;;;;;;5076330;28;20035;-79
2021/11/09 05:16:37;;;;;;;26.33;20.45;;;256.60;2252.80;;;;;;5074779;28;20024;-79
2021/11/09 05:19:03;;;;;;;27.05;20.38;;;256.60;2252.80;;;;;;5075125;28;20052;-80
2021/11/09 05:21:29;;;;;;;25.35;20.20;;;256.70;2252.80;;;;;;5075923;28;20415;-80
2021/11/09 05:23:55;;;;;;;28.00;19.90;;;256.80;2252.80;;;;;;5074599;28;20028;-80
2021/11/09 05:26:21;;;;;;;34.05;23.45;;;256.60;2252.80;;;;;;5074721;28;20126;-80
2021/11/09 05:28:47;;;;;;;27.63;20.80;;;256.60;2252.80;;;;;;5074814;28;20090;-80
2021/11/09 05:31:14;;;;;;;27.92;21.38;;;256.70;2252.80;;;;;;5074453;28;20440;-80
2021/11/09 05:33:41;;;;;;;32.15;24.63;;;256.70;2252.80;;;;;;5074621;28;20024;-79
2021/11/09 05:36:09;;;;;;;39.45;29.10;;;281.70;2278.40;;;;;;5074518;28;20032;-80
2021/11/09 05:41:11;;;;;;;36.78;25.63;;;256.60;2252.80;;;;;;5075834;28;20074;-79
2021/11/09 05:43:38;;;;;;;38.97;28.42;;;256.80;2252.80;;;;;;5074448;28;20025;-79
2021/11/09 05:46:05;;;;;;;39.95;28.67;;;256.90;2252.80;;;;;;5075103;28;20377;-80
2021/11/09 05:48:31;;;;;;;35.97;28.08;;;256.70;2252.80;;;;;;5075481;28;20052;-79
2021/11/09 05:50:57;;;;;;;39.28;27.15;;;256.80;2252.80;;;;;;5075176;28;20095;-79
2021/11/09 05:53:23;;;;;;;36.70;27.23;;;256.60;2252.80;;;;;;5073838;28;20115;-79
2021/11/09 05:55:50;;;;;;;39.70;28.02;;;256.70;2252.80;;;;;;5074085;28;20067;-79
2021/11/09 05:58:16;;;;;;;41.20;27.80;;;256.70;2252.80;;;;;;5075368;28;20024;-79
2021/11/09 06:00:41;;;;;;;39.75;28.70;;;256.60;2252.80;;;;;;5073628;28;20032;-79
2021/11/09 06:03:07;;;;;;;38.60;27.58;;;256.70;2252.80;;;;;;5075320;28;20492;-80
2021/11/09 06:05:33;;;;;;;37.10;28.10;;;256.80;2252.80;;;;;;5073678;28;20485;-79
2021/11/09 06:07:59;;;;;;;34.15;27.50;;;256.70;2252.80;;;;;;5073397;28;20299;-80
2021/11/09 06:10:25;;;;;;;41.83;29.92;;;256.80;2252.80;;;;;;5075050;28;20037;-79
2021/11/09 06:12:50;;;;;;;36.33;27.10;;;256.80;2252.80;;;;;;5073219;28;20139;-79
2021/11/09 06:15:16;;;;;;;44.88;33.30;;;256.80;2252.80;;;;;;5073761;28;20048;-80
2021/11/09 06:17:42;;;;;;;43.40;35.40;;;256.90;2252.80;;;;;;5073689;28;20382;-79
2021/11/09 06:20:08;;;;;;;40.13;30.45;;;281.60;2278.40;;;;;;5073289;28;20381;-80
2021/11/09 06:22:37;;;;;;;45.28;34.28;;;281.70;2278.40;;;;;;5073684;28;20021;-79
2021/11/09 06:25:04;;;;;;;67.35;47.25;;;281.60;2278.40;;;;;;5073514;28;20115;-80
2021/11/09 06:27:30;;;;;;;61.10;43.53;;;281.60;2278.40;;;;;;5074533;28;20032;-79
2021/11/09 06:29:55;;;;;;;51.67;37.55;;;281.60;2278.40;;;;;;5073871;28;20373;-80
2021/11/09 06:32:21;;;;;;;80.88;55.33;;;281.60;2278.40;;;;;;5074496;28;20038;-79
2021/11/09 06:34:47;;;;;;;79.53;56.53;;;256.80;2252.80;;;;;;5073050;28;20023;-80
2021/11/09 06:37:13;;;;;;;48.97;35.45;;;256.80;2252.80;;;;;;5074899;28;20025;-80
2021/11/09 06:39:39;;;;;;;92.93;65.05;;;256.90;2252.80;;;;;;5072987;28;20437;-79
2021/11/09 06:42:06;;;;;;;73.55;51.63;;;256.90;2252.80;;;;;;5072816;28;20028;-81
2021/11/09 06:44:32;;;;;;;51.08;35.25;;;281.60;2278.40;;;;;;5074585;28;20032;-79
2021/11/09 06:46:58;;;;;;;41.78;29.83;;;256.90;2252.80;;;;;;5073077;28;20024;-80
2021/11/09 06:49:24;;;;;;;43.97;32.10;;;256.90;2252.80;;;;;;5072669;28;20029;-79
2021/11/09 06:51:50;;;;;;;40.15;27.98;;;256.90;2252.80;;;;;;5073052;28;20032;-79
2021/11/09 06:54:16;;;;;;;46.72;30.25;;;256.80;2252.80;;;;;;5074619;28;20373;-79
2021/11/09 06:56:42;;;;;;;45.50;31.15;;;256.90;2252.80;;;;;;5072800;28;20031;-79
2021/11/09 06:59:08;;;;;;;44.17;33.00;;;281.60;2278.40;;;;;;5073070;28;20024;-79
2021/11/09 07:01:35;;;;;;;43.53;31.30;;;281.60;2278.40;;;;;;5072828;28;20082;-79
2021/11/09 07:04:01;;;;;;;42.33;30.40;;;281.70;2278.40;;;;;;5072685;28;20043;-80
2021/11/09 07:06:27;;;;;;;42.47;29.38;;;281.60;2278.40;;;;;;5072859;28;20024;-80
2021/11/09 07:08:53;;;;;;;52.65;36.70;;;281.70;2278.40;;;;;;5072710;28;20546;-80
2021/11/09 07:11:19;;;;;;;55.58;37.55;;;281.60;2278.40;;;;;;5072780;28;20025;-80
2021/11/09 07:13:46;;;;;;;51.85;38.08;;;281.60;2278.40;;;;;;5072962;28;20120;-80
2021/11/09 07:16:12;;;;;;;40.75;29.25;;;281.70;2278.40;;;;;;5072342;28;20021;-80
2021/11/09 07:18:39;;;;;;;43.50;29.05;;;256.90;2252.80;;;;;;5072680;28;20031;-80
2021/11/09 07:21:05;;;;;;;37.55;27.92;;;281.70;2278.40;;;;;;5072652;28;20037;-79
2021/11/09 07:23:31;;;;;;;51.45;35.28;;;281.70;2278.40;;;;;;5072432;28;20021;-79
2021/11/09 07:25:57;;;;;;;41.05;28.10;;;281.70;2278.40;;;;;;5073990;28;20020;-79
2021/11/09 07:28:23;;;;;;;39.20;28.48;;;281.70;2278.40;;;;;;5072385;28;20465;-79
2021/11/09 07:31:04;;;;;;;43.28;28.00;;;281.70;2278.40;;;;;;5072329;28;20094;-80
2021/11/09 07:33:32;;;;;;;47.00;31.50;;;281.70;2278.40;;;;;;5073748;28;20025;-79
2021/11/09 07:35:58;;;;;;;51.35;38.13;;;281.60;2278.40;;;;;;5072574;28;20024;-80
2021/11/09 07:38:24;;;;;;;39.03;30.20;;;281.70;2278.40;;;;;;5071817;28;20056;-79
2021/11/09 07:40:50;;;;;;;39.83;33.10;;;281.60;2278.40;;;;;;5072072;28;20033;-79
2021/11/09 07:43:17;;;;;;;45.80;34.90;;;281.60;2278.40;;;;;;5072313;28;20029;-80
2021/11/09 07:45:43;;;;;;;47.88;35.17;;;281.70;2278.40;;;;;;5072358;28;20451;-79
2021/11/09 07:48:11;;;;;;;53.20;36.85;;;256.90;2252.80;;;;;;5073700;28;20052;-78
2021/11/09 07:50:38;;;;;;;52.10;37.65;;;256.80;2252.80;;;;;;5073090;28;20473;-77
2021/11/09 07:53:04;;;;;;;44.60;31.02;;;281.70;2278.40;;;;;;5072370;28;20020;-79
2021/11/09 07:55:39;;;;;;;42.60;30.70;;;281.60;2278.40;;;;;;5072172;28;20028;-80
2021/11/09 07:58:11;;;;;;;40.50;31.65;;;256.70;2252.80;;;;;;5071804;28;20035;-78
2021/11/09 08:00:40;;;;;;;46.63;32.15;;;256.90;2252.80;;;;;;5072214;28;20025;-79
2021/11/09 08:05:39;;;;;;;39.15;29.05;;;256.90;2252.80;;;;;;5073179;28;20043;-79
2021/11/09 08:08:17;;;;;;;37.40;27.35;;;256.80;2252.80;;;;;;5072167;28;20473;-80
2021/11/09 08:10:43;;;;;;;37.30;28.08;;;256.80;2252.80;;;;;;5072018;28;20032;-79
2021/11/09 08:13:09;;;;;;;41.55;28.85;;;256.80;2252.80;;;;;;5071702;28;20050;-80
2021/11/09 08:15:36;;;;;;;42.22;28.85;;;256.80;2252.80;;;;;;5072047;28;20185;-79
2021/11/09 08:18:03;;;;;;;38.80;27.70;;;281.60;2278.40;;;;;;5073233;28;20021;-79
2021/11/09 08:20:29;;;;;;;43.80;29.02;;;281.60;2278.40;;;;;;5071678;28;20032;-79
2021/11/09 08:22:55;;;;;;;41.15;30.63;;;281.60;2278.40;;;;;;5071920;28;20024;-79
2021/11/09 08:25:21;;;;;;;33.35;23.40;;;256.90;2252.80;;;;;;5073070;28;20032;-79
2021/11/09 08:27:47;;;;;;;40.53;26.27;;;256.90;2252.80;;;;;;5071657;28;20381;-81
2021/11/09 08:30:13;;;;;;;41.90;31.35;;;281.60;2278.40;;;;;;5071930;28;20535;-79
2021/11/09 08:32:41;;;;;;;47.55;34.67;;;256.90;2252.80;;;;;;5071583;28;20025;-79
2021/11/09 08:35:08;;;;;;;52.67;41.30;;;256.80;2252.80;;;;;;5072821;28;20027;-81
2021/11/09 08:37:34;;;;;;;58.50;44.80;;;256.90;2252.80;;;;;;5071749;28;20024;-79
2021/11/09 08:40:04;;;;;;;86.32;59.88;;;281.60;2278.40;;;;;;5071218;28;20563;-78
2021/11/09 08:42:35;;;;;;;56.30;42.80;;;256.90;2252.80;;;;;;5072827;28;20497;-80
2021/11/09 08:48:04;;;;;;;47.08;35.20;;;256.90;2252.80;;;;;;5017869;28;20416;-78
2021/11/09 08:50:30;;;;;;;41.83;27.60;;;256.90;2252.80;;;;;;5071564;28;20039;-79
2021/11/09 08:52:57;;;;;;;30.08;24.20;;;256.90;2252.80;;;;;;5072591;28;20020;-78
2021/11/09 09:05:53;;;;;;;90.78;65.38;;;281.70;2278.40;;;;;;5076266;28;20507;-80
2021/11/09 09:08:19;;;;;;;120.00;79.88;;;281.70;2278.40;;;;;;5074597;28;20028;-78
2021/11/09 09:10:45;;;;;;;101.03;64.97;;;281.70;2278.40;;;;;;5076467;28;20078;-79
2021/11/09 09:13:11;;;;;;;86.68;60.90;;;281.80;2278.40;;;;;;5076053;28;20419;-79
2021/11/09 09:15:37;;;;;;;100.25;67.18;;;281.70;2278.40;;;;;;5074683;28;20028;-81
2021/11/09 09:18:05;;;;;;;97.00;63.67;;;256.90;2252.80;;;;;;5074738;28;20462;-80
2021/11/09 09:20:39;;;;;;;88.53;60.80;;;281.60;2278.40;;;;;;5074738;28;20536;-81
2021/11/09 09:23:10;;;;;;;85.35;61.47;;;281.60;2278.40;;;;;;5075910;28;20063;-80
2021/11/09 09:31:10;;;;;;;57.60;39.47;;;281.60;2278.40;;;;;;5075690;28;20083;-80
2021/11/09 09:53:00;;;;;;;65.03;48.97;;;256.90;2252.80;;;;;;5075757;28;20031;-81
2021/11/09 09:58:02;;;;;;;51.58;38.38;;;256.50;2252.80;;;;;;5075174;28;20063;-81
2021/11/09 10:00:28;;;;;;;56.30;43.95;;;256.50;2252.80;;;;;;5057573;28;20036;-79
2021/11/09 10:02:57;;;;;;;38.28;29.33;;;256.50;2252.80;;;;;;5057537;28;20520;-80
2021/11/09 10:05:25;;;;;;;36.28;26.98;;;256.40;2252.80;;;;;;5056939;28;20036;-82
2021/11/09 10:07:54;;;;;;;33.90;26.05;;;256.40;2252.80;;;;;;5057508;28;20078;-81
2021/11/09 10:10:33;;;;;;;49.63;38.75;;;256.30;2252.80;;;;;;5057233;28;20040;-80
2021/11/09 10:12:59;;;;;;;48.10;34.83;;;256.40;2252.80;;;;;;5056973;28;20031;-79
2021/11/09 10:15:28;;;;;;;50.17;39.63;;;256.40;2252.80;;;;;;5075090;28;20017;-81
2021/11/09 10:18:02;;;;;;;48.00;34.60;;;256.50;2252.80;;;;;;5074677;28;20527;-81
2021/11/09 10:20:34;;;;;;;51.05;37.38;;;256.50;2252.80;;;;;;5075110;28;20416;-81
2021/11/09 10:23:04;;;;;;;107.72;72.30;;;256.60;2252.80;;;;;;5057187;28;20028;-81
2021/11/09 10:25:30;;;;;;;100.25;70.70;;;256.70;2252.80;;;;;;5074821;28;20030;-81
2021/11/09 10:28:06;;;;;;;63.20;42.83;;;256.80;2252.80;;;;;;5056671;28;20060;-81
2021/11/09 10:30:39;;;;;;;61.33;47.08;;;256.80;2252.80;;;;;;5056767;28;20032;-79
2021/11/09 10:33:05;;;;;;;55.95;41.47;;;256.80;2252.80;;;;;;5056551;28;20369;-77
2021/11/09 10:35:32;;;;;;;68.05;50.10;;;256.60;2252.80;;;;;;5056693;28;20377;-79
2021/11/09 10:38:03;;;;;;;69.80;51.05;;;256.50;2252.80;;;;;;5074358;28;20032;-79
2021/11/09 10:40:38;;;;;;;54.75;40.65;;;256.50;2252.80;;;;;;5056171;28;20032;-79
2021/11/09 10:43:07;;;;;;;48.08;38.75;;;256.50;2252.80;;;;;;5056687;28;20093;-80
2021/11/09 10:45:37;;;;;;;68.50;49.83;;;256.60;2252.80;;;;;;5056405;28;20032;-79
2021/11/09 10:48:08;;;;;;;55.30;42.10;;;256.70;2252.80;;;;;;5056438;28;20025;-81
2021/11/09 10:50:40;;;;;;;55.63;42.63;;;256.80;2252.80;;;;;;5074511;28;20035;-80
2021/11/09 10:53:19;;;;;;;52.88;40.60;;;256.90;2252.80;;;;;;5056279;28;20028;-82
2021/11/09 10:56:12;;;;;;;70.07;52.00;;;281.60;2278.40;;;;;;5056576;28;20377;-80
2021/11/09 11:06:16;;;;;;;80.85;61.15;;;281.80;2278.40;;;;;;5074018;28;20039;-78
2021/11/09 11:08:43;;;;;;;87.97;67.45;;;281.80;2278.40;;;;;;5073600;28;20027;-81
2021/11/09 11:11:23;;;;;;;85.97;66.50;;;281.80;2278.40;;;;;;5056025;28;20028;-79
2021/11/09 11:14:08;;;;;;;71.70;53.97;;;281.70;2278.40;;;;;;5055860;28;20029;-80
2021/11/09 11:16:48;;;;;;;56.88;43.63;;;281.70;2278.40;;;;;;5055656;28;20029;-82
2021/11/09 11:19:33;;;;;;;58.97;44.92;;;281.70;2278.40;;;;;;5056117;28;20035;-80
2021/11/09 11:22:03;;;;;;;63.22;46.72;;;281.70;2278.40;;;;;;5073619;28;20028;-79
2021/11/09 11:24:29;;;;;;;58.58;43.45;;;281.70;2278.40;;;;;;5056001;28;20043;-81
2021/11/09 11:26:58;;;;;;;63.08;46.17;;;281.70;2278.40;;;;;;5073804;28;20025;-80
2021/11/09 11:29:31;;;;;;;52.83;38.88;;;281.70;2278.40;;;;;;5055057;28;20033;-81
2021/11/09 11:31:57;;;;;;;;;;;281.60;2278.40;;;;;;5056540;28;20511;-82
2021/11/09 11:34:27;;;;;;;46.17;38.08;;;281.60;2278.40;;;;;;5055943;28;19952;-82
2021/11/09 11:36:54;;;;;;;42.38;34.22;;;256.80;2252.80;;;;;;5055704;28;20025;-82
2021/11/09 11:39:24;;;;;;;36.80;30.08;;;256.80;2252.80;;;;;;5055452;28;20106;-82
2021/11/09 11:41:54;;;;;;;49.58;40.17;;;256.80;2252.80;;;;;;5073684;28;20377;-82
2021/11/09 11:44:33;;;;;;;41.97;31.40;;;256.80;2252.80;;;;;;5055907;28;20412;-83
2021/11/09 11:47:19;;;;;;;34.67;28.58;;;256.50;2252.80;;;;;;5056152;28;20024;-82
2021/11/09 11:49:58;;;;;;;54.70;43.50;;;256.60;2252.80;;;;;;5056543;28;20032;-82
2021/11/09 11:52:30;;;;;;;49.38;38.28;;;256.60;2252.80;;;;;;5056133;28;20105;-83
2021/11/09 11:55:04;;;;;;;42.03;36.73;;;256.60;2252.80;;;;;;5055876;28;20493;-82
2021/11/09 11:57:38;;;;;;;47.85;40.20;;;256.80;2252.80;;;;;;5073479;28;20074;-82
2021/11/09 12:00:28;;;;;;;43.50;34.30;;;256.90;2252.80;;;;;;5073545;28;20032;-82
2021/11/09 12:02:55;;;;;;;59.88;44.78;;;256.90;2252.80;;;;;;5055408;28;20089;-83
2021/11/09 12:05:42;;;;;;;50.42;38.97;;;281.60;2278.40;;;;;;5055510;28;20053;-82
2021/11/09 12:08:11;;;;;;;44.90;34.90;;;281.60;2278.40;;;;;;5073692;28;20063;-82
2021/11/09 12:10:44;;;;;;;46.58;34.17;;;281.60;2278.40;;;;;;5072945;28;20420;-83
2021/11/09 12:13:11;;;;;;;41.92;32.08;;;281.70;2278.40;;;;;;5055409;28;20025;-84
2021/11/09 12:15:48;;;;;;;35.75;25.75;;;281.80;2278.40;;;;;;5055270;28;20128;-83
2021/11/09 12:18:43;;;;;;;30.75;22.60;;;256.90;2252.80;;;;;;5055031;28;20436;-81
2021/11/09 12:21:18;;;;;;;27.63;19.98;;;281.60;2278.40;;;;;;5055367;28;20025;-82
2021/11/09 12:24:08;;;;;;;33.65;23.58;;;281.70;2278.40;;;;;;5054741;28;20482;-83
2021/11/09 12:26:56;;;;;;;31.02;23.27;;;281.60;2278.40;;;;;;5055210;28;20025;-81
2021/11/09 12:29:54;;;;;;;31.40;22.08;;;281.60;2278.40;;;;;;5058834;28;20063;-81
2021/11/09 12:32:31;;;;;;;23.85;19.23;;;281.70;2278.40;;;;;;5004936;28;20036;-82
2021/11/09 12:35:11;;;;;;;29.85;22.33;;;281.80;2278.40;;;;;;5058934;28;20025;-80
2021/11/09 12:38:03;;;;;;;17.30;12.73;;;281.80;2278.40;;;;;;5058475;28;20035;-83
2021/11/09 12:40:38;;;;;;;22.25;13.32;;;281.80;2278.40;;;;;;5045841;28;20072;-81
2021/11/09 12:43:23;;;;;;;19.15;13.60;;;281.70;2278.40;;;;;;5058821;28;20020;-81
2021/11/09 12:46:08;;;;;;;18.08;13.18;;;281.60;2278.40;;;;;;5076680;28;20025;-81
2021/11/09 12:48:52;;;;;;;26.55;16.65;;;256.90;2252.80;;;;;;5058728;28;20054;-82
2021/11/09 12:51:25;;;;;;;21.00;14.25;;;281.60;2278.40;;;;;;5058830;28;20067;-80
2021/11/09 12:53:53;;;;;;;24.00;13.02;;;256.90;2252.80;;;;;;5058543;28;20119;-82
2021/11/09 12:56:32;;;;;;;16.92;11.27;;;281.60;2278.40;;;;;;5058596;28;20358;-82
2021/11/09 12:59:06;;;;;;;13.27;10.52;;;256.90;2252.80;;;;;;5058319;28;20119;-81
2021/11/09 13:09:45;;;;;;;16.48;12.70;;;256.70;2252.80;;;;;;5076331;28;20043;-81
2021/11/09 13:12:17;;;;;;;14.77;10.10;;;256.80;2252.80;;;;;;5076249;28;20020;-81
2021/11/09 13:14:57;;;;;;;15.00;9.50;;;256.70;2252.80;;;;;;5076236;28;20028;-82
2021/11/09 13:17:23;;;;;;;16.77;13.52;;;256.70;2252.80;;;;;;5058393;28;20052;-82
2021/11/09 13:19:59;;;;;;;20.05;15.15;;;256.80;2252.80;;;;;;5075983;28;20063;-84
2021/11/09 13:22:29;;;;;;;18.25;13.65;;;256.80;2252.80;;;;;;5058160;28;20029;-81
2021/11/09 13:24:58;;;;;;;16.23;12.15;;;256.70;2252.80;;;;;;5058187;28;20028;-82
2021/11/09 13:27:45;;;;;;;16.52;11.57;;;256.70;2252.80;;;;;;5058049;28;20052;-82
2021/11/09 13:30:19;;;;;;;27.38;18.67;;;256.80;2252.80;;;;;;5076128;28;20068;-83
2021/11/09 13:32:56;;;;;;;12.43;8.00;;;256.80;2252.80;;;;;;5058088;28;20032;-82
2021/11/09 13:35:26;;;;;;;43.35;22.38;;;256.70;2252.80;;;;;;5057765;28;20028;-82
2021/11/09 13:38:21;;;;;;;34.88;21.45;;;256.50;2252.80;;;;;;5075551;28;20454;-81
2021/11/09 13:40:49;;;;;;;71.10;41.53;;;256.70;2252.80;;;;;;5075669;28;20031;-83
2021/11/09 13:43:19;;;;;;;80.60;54.55;;;256.80;2252.80;;;;;;5057777;28;20029;-81
2021/11/09 13:45:46;;;;;;;49.30;33.60;;;256.80;2252.80;;;;;;5075553;28;20024;-80
2021/11/09 13:48:18;;;;;;;36.88;25.83;;;256.80;2252.80;;;;;;5076060;28;20078;-84
2021/11/09 13:50:47;;;;;;;58.17;31.90;;;256.70;2252.80;;;;;;5057884;28;20444;-78
2021/11/09 13:53:41;;;;;;;109.85;76.07;;;256.70;2252.80;;;;;;5084239;28;20100;-77
2021/11/09 13:56:19;;;;;;;59.92;47.35;;;256.90;2252.80;;;;;;5072875;28;20367;-78
2021/11/09 13:59:01;;;;;;;52.75;35.67;;;256.90;2252.80;;;;;;5075290;28;20016;-78
2021/11/09 14:01:32;;;;;;;46.53;31.87;;;256.90;2252.80;;;;;;5057618;28;20028;-83
2021/11/09 14:06:50;;;;;;;53.55;37.53;;;281.60;2278.40;;;;;;5075367;28;20028;-80
2021/11/09 14:17:40;;;;;;;36.10;26.92;;;256.90;2252.80;;;;;;5076281;28;20618;-78
2021/11/09 14:20:24;;;;;;;47.33;38.78;;;256.90;2252.80;;;;;;5076192;28;20028;-79
2021/11/09 14:23:08;;;;;;;43.85;33.28;;;281.60;2278.40;;;;;;5093682;28;20125;-80
2021/11/09 14:25:34;;;;;;;39.83;31.52;;;281.60;2278.40;;;;;;5075623;28;20451;-80
2021/11/09 14:28:00;;;;;;;30.90;23.33;;;256.60;2252.80;;;;;;5075980;28;20036;-82
2021/11/09 14:30:28;;;;;;;36.60;27.60;;;256.80;2252.80;;;;;;5075888;28;20040;-82
2021/11/09 14:33:23;;;;;;;33.90;26.05;;;256.70;2252.80;;;;;;5075788;28;20037;-80
2021/11/09 14:35:54;;;;;;;28.35;22.50;;;256.80;2252.80;;;;;;5054872;28;20034;-81
2021/11/09 14:38:24;;;;;;;39.40;29.58;;;256.90;2252.80;;;;;;5093594;28;20431;-80
2021/11/09 14:41:00;;;;;;;30.15;24.30;;;256.80;2252.80;;;;;;5075592;28;20103;-81
2021/11/09 14:43:39;;;;;;;39.28;27.38;;;256.80;2252.80;;;;;;5075843;28;20473;-81
2021/11/09 14:46:14;;;;;;;54.42;35.15;;;256.60;2252.80;;;;;;5078212;28;20047;-81
2021/11/09 14:51:15;;;;;;;32.25;24.02;;;256.60;2252.80;;;;;;5071479;28;20062;-81